createdAt,value
2019-01-08T00:00:28.107Z,1007.51
2019-01-08T00:01:28.097Z,1007.54
2019-01-08T00:02:28.089Z,1007.55
2019-01-08T00:03:28.079Z,1007.48
2019-01-08T00:04:28.062Z,1007.41
2019-01-08T00:05:28.049Z,1007.36
2019-01-08T00:06:28.042Z,1007.37
2019-01-08T00:07:28.028Z,1007.39
2019-01-08T00:08:28.013Z,1007.35
2019-01-08T00:09:28.004Z,1007.28
2019-01-08T00:10:27.993Z,1007.34
2019-01-08T00:11:27.984Z,1007.31
2019-01-08T00:12:27.971Z,1007.27
2019-01-08T00:13:27.959Z,1007.27
2019-01-08T00:14:27.952Z,1007.20
2019-01-08T00:15:27.938Z,1007.21
2019-01-08T00:16:27.925Z,1007.16
2019-01-08T00:17:27.914Z,1007.08
2019-01-08T00:18:27.905Z,1007.08
2019-01-08T00:19:27.897Z,1007.11
2019-01-08T00:20:27.880Z,1007.08
2019-01-08T00:21:27.877Z,1007.07
2019-01-08T00:22:27.857Z,1006.98
2019-01-08T00:23:27.846Z,1006.97
2019-01-08T00:24:27.837Z,1006.89
2019-01-08T00:25:27.872Z,1006.96
2019-01-08T00:26:27.812Z,1006.88
2019-01-08T00:27:27.801Z,1006.83
2019-01-08T00:28:27.796Z,1006.66
2019-01-08T00:29:27.778Z,1006.72
2019-01-08T00:30:27.767Z,1006.74
2019-01-08T00:31:27.756Z,1006.71
2019-01-08T00:32:27.744Z,1006.71
2019-01-08T00:33:27.735Z,1006.68
2019-01-08T00:34:27.721Z,1006.68
2019-01-08T00:35:27.708Z,1006.67
2019-01-08T00:36:27.699Z,1006.63
2019-01-08T00:37:27.689Z,1006.63
2019-01-08T00:38:27.678Z,1006.66
2019-01-08T00:39:27.664Z,1006.52
2019-01-08T00:40:27.655Z,1006.43
2019-01-08T00:41:27.644Z,1006.53
2019-01-08T00:42:27.632Z,1006.49
2019-01-08T00:43:27.623Z,1006.42
2019-01-08T00:44:27.608Z,1006.42
2019-01-08T00:45:27.598Z,1006.40
2019-01-08T00:46:27.590Z,1006.38
2019-01-08T00:48:27.595Z,1006.35
2019-01-08T00:49:27.609Z,1006.30
2019-01-08T00:50:27.540Z,1006.26
2019-01-08T00:51:27.543Z,1006.31
2019-01-08T00:52:27.549Z,1006.26
2019-01-08T00:53:27.550Z,1006.22
2019-01-08T00:54:27.495Z,1006.22
2019-01-08T00:55:27.484Z,1006.20
2019-01-08T00:56:27.472Z,1006.17
2019-01-08T00:57:27.464Z,1006.19
2019-01-08T00:58:27.458Z,1006.20
2019-01-08T00:59:27.442Z,1006.20
2019-01-08T01:00:27.430Z,1006.13
2019-01-08T01:01:27.417Z,1006.09
2019-01-08T01:02:27.407Z,1006.13
2019-01-08T01:03:27.394Z,1006.06
2019-01-08T01:04:27.381Z,1006.07
2019-01-08T01:05:27.371Z,1006.03
2019-01-08T01:06:27.362Z,1006.02
2019-01-08T01:07:27.349Z,1005.98
2019-01-08T01:08:27.353Z,1005.85
2019-01-08T01:09:27.328Z,1005.78
2019-01-08T01:10:27.316Z,1005.83
2019-01-08T01:11:27.311Z,1005.78
2019-01-08T01:12:27.294Z,1005.86
2019-01-08T01:13:27.286Z,1005.80
2019-01-08T01:14:27.270Z,1005.77
2019-01-08T01:15:27.261Z,1005.71
2019-01-08T01:16:27.249Z,1005.65
2019-01-08T01:17:27.235Z,1005.64
2019-01-08T01:18:27.226Z,1005.61
2019-01-08T01:19:27.212Z,1005.60
2019-01-08T01:20:27.202Z,1005.56
2019-01-08T01:21:27.192Z,1005.52
2019-01-08T01:22:27.180Z,1005.51
2019-01-08T01:23:27.170Z,1005.45
2019-01-08T01:24:27.158Z,1005.51
2019-01-08T01:25:27.148Z,1005.39
2019-01-08T01:26:27.136Z,1005.27
2019-01-08T01:27:27.136Z,1005.33
2019-01-08T01:28:27.113Z,1005.28
2019-01-08T01:29:27.101Z,1005.30
2019-01-08T01:30:27.090Z,1005.33
2019-01-08T01:31:27.085Z,1005.27
2019-01-08T01:32:27.075Z,1005.17
2019-01-08T01:33:27.064Z,1005.20
2019-01-08T01:34:27.050Z,1005.18
2019-01-08T01:35:27.032Z,1005.20
2019-01-08T01:36:27.032Z,1005.15
2019-01-08T01:37:27.009Z,1005.18
2019-01-08T01:38:27.000Z,1005.12
2019-01-08T01:39:26.989Z,1005.06
2019-01-08T01:40:26.976Z,1005.11
2019-01-08T01:41:26.967Z,1005.04
2019-01-08T01:42:26.991Z,1005.09
2019-01-08T01:43:26.944Z,1004.99
2019-01-08T01:44:26.935Z,1005.00
2019-01-08T01:45:26.926Z,1004.97
2019-01-08T01:46:26.914Z,1004.92
2019-01-08T01:47:26.900Z,1004.90
2019-01-08T01:48:26.887Z,1004.85
2019-01-08T01:49:26.876Z,1004.79
2019-01-08T01:50:26.864Z,1004.68
2019-01-08T01:51:26.859Z,1004.73
2019-01-08T01:52:26.843Z,1004.68
2019-01-08T01:53:26.834Z,1004.65
2019-01-08T01:54:26.822Z,1004.64
2019-01-08T01:55:26.819Z,1004.75
2019-01-08T01:56:26.795Z,1004.58
2019-01-08T01:57:26.785Z,1004.62
2019-01-08T01:58:26.772Z,1004.58
2019-01-08T01:59:26.763Z,1004.53
2019-01-08T02:00:26.750Z,1004.46
2019-01-08T02:01:26.739Z,1004.45
2019-01-08T02:02:26.734Z,1004.48
2019-01-08T02:03:26.717Z,1004.41
2019-01-08T02:04:26.712Z,1004.38
2019-01-08T02:05:26.698Z,1004.27
2019-01-08T02:06:26.683Z,1004.41
2019-01-08T02:07:26.678Z,1004.41
2019-01-08T02:08:26.660Z,1004.29
2019-01-08T02:09:26.650Z,1004.27
2019-01-08T02:10:26.638Z,1004.27
2019-01-08T02:11:26.631Z,1004.30
2019-01-08T02:12:26.616Z,1004.29
2019-01-08T02:13:26.605Z,1004.21
2019-01-08T02:14:26.593Z,1004.23
2019-01-08T02:15:26.583Z,1004.19
2019-01-08T02:16:26.569Z,1004.17
2019-01-08T02:17:26.564Z,1004.06
2019-01-08T02:18:26.546Z,1004.06
2019-01-08T02:19:26.537Z,1004.10
2019-01-08T02:20:26.526Z,1004.00
2019-01-08T02:21:26.514Z,1004.05
2019-01-08T02:22:26.502Z,1004.07
2019-01-08T02:23:26.492Z,1004.10
2019-01-08T02:24:26.480Z,1004.04
2019-01-08T02:25:26.473Z,1004.10
2019-01-08T02:26:26.463Z,1004.11
2019-01-08T02:27:26.453Z,1004.10
2019-01-08T02:28:26.435Z,1004.08
2019-01-08T02:29:26.647Z,1003.97
2019-01-08T02:30:26.417Z,1003.90
2019-01-08T02:31:26.404Z,1003.92
2019-01-08T02:32:26.392Z,1003.97
2019-01-08T02:33:26.381Z,1003.90
2019-01-08T02:34:26.369Z,1003.82
2019-01-08T02:35:26.355Z,1003.84
2019-01-08T02:36:26.574Z,1003.77
2019-01-08T02:37:26.336Z,1003.83
2019-01-08T02:38:26.326Z,1003.75
2019-01-08T02:39:26.312Z,1003.82
2019-01-08T02:40:26.335Z,1003.78
2019-01-08T02:41:26.390Z,1003.81
2019-01-08T02:42:26.284Z,1003.74
2019-01-08T02:43:26.271Z,1003.76
2019-01-08T02:44:26.284Z,1003.74
2019-01-08T02:45:26.245Z,1003.67
2019-01-08T02:46:26.253Z,1003.70
2019-01-08T02:47:26.223Z,1003.59
2019-01-08T02:48:26.213Z,1003.60
2019-01-08T02:49:26.197Z,1003.61
2019-01-08T02:50:26.189Z,1003.57
2019-01-08T02:51:26.177Z,1003.60
2019-01-08T02:52:26.170Z,1003.57
2019-01-08T02:53:26.157Z,1003.51
2019-01-08T02:54:26.239Z,1003.47
2019-01-08T02:55:26.138Z,1003.51
2019-01-08T02:56:26.119Z,1003.45
2019-01-08T02:57:26.109Z,1003.37
2019-01-08T02:58:26.109Z,1003.41
2019-01-08T02:59:26.089Z,1003.41
2019-01-08T03:00:26.076Z,1003.41
2019-01-08T03:01:26.065Z,1003.32
2019-01-08T03:02:26.053Z,1003.27
2019-01-08T03:03:26.044Z,1003.24
2019-01-08T03:04:26.030Z,1003.26
2019-01-08T03:05:26.027Z,1003.25
2019-01-08T03:06:26.018Z,1003.19
2019-01-08T03:07:25.998Z,1003.24
2019-01-08T03:08:25.986Z,1003.15
2019-01-08T03:09:25.978Z,1003.07
2019-01-08T03:10:25.961Z,1003.06
2019-01-08T03:11:25.951Z,1003.00
2019-01-08T03:12:25.942Z,1003.03
2019-01-08T03:13:25.929Z,1002.92
2019-01-08T03:14:25.917Z,1002.91
2019-01-08T03:15:25.908Z,1002.89
2019-01-08T03:16:25.894Z,1002.87
2019-01-08T03:17:25.883Z,1002.84
2019-01-08T03:18:25.876Z,1002.86
2019-01-08T03:19:25.860Z,1002.79
2019-01-08T03:20:25.850Z,1002.74
2019-01-08T03:21:25.838Z,1002.78
2019-01-08T03:22:25.830Z,1002.70
2019-01-08T03:23:25.817Z,1002.74
2019-01-08T03:24:25.804Z,1002.60
2019-01-08T03:25:25.798Z,1002.61
2019-01-08T03:26:25.783Z,1002.55
2019-01-08T03:27:25.771Z,1002.53
2019-01-08T03:28:25.765Z,1002.55
2019-01-08T03:29:33.337Z,1002.54
2019-01-08T03:30:50.236Z,1002.53
2019-01-08T03:31:50.209Z,1002.55
2019-01-08T03:32:50.196Z,1002.54
2019-01-08T03:33:50.202Z,1002.46
2019-01-08T03:34:50.173Z,1002.48
2019-01-08T03:35:50.161Z,1002.44
2019-01-08T03:36:50.156Z,1002.43
2019-01-08T03:37:50.137Z,1002.39
2019-01-08T03:38:50.127Z,1002.40
2019-01-08T03:39:50.117Z,1002.39
2019-01-08T03:40:50.106Z,1002.32
2019-01-08T03:41:50.095Z,1002.35
2019-01-08T03:42:50.083Z,1002.29
2019-01-08T03:43:50.073Z,1002.26
2019-01-08T03:44:50.064Z,1002.20
2019-01-08T03:45:50.122Z,1002.23
2019-01-08T03:46:50.037Z,1002.22
2019-01-08T03:47:50.026Z,1002.24
2019-01-08T03:48:50.019Z,1002.27
2019-01-08T03:49:50.005Z,1002.22
2019-01-08T03:50:49.993Z,1002.20
2019-01-08T03:51:49.980Z,1002.20
2019-01-08T03:52:49.968Z,1002.22
2019-01-08T03:53:49.958Z,1002.00
2019-01-08T03:54:49.949Z,1002.08
2019-01-08T03:55:49.937Z,1001.97
2019-01-08T03:56:49.931Z,1001.94
2019-01-08T03:57:49.918Z,1002.00
2019-01-08T03:58:49.903Z,1001.95
2019-01-08T03:59:49.892Z,1001.84
2019-01-08T04:00:49.880Z,1001.86
2019-01-08T04:01:49.874Z,1001.86
2019-01-08T04:02:49.860Z,1001.78
2019-01-08T04:03:49.845Z,1001.77
2019-01-08T04:04:49.835Z,1001.81
2019-01-08T04:05:49.826Z,1001.78
2019-01-08T04:06:49.815Z,1001.75
2019-01-08T04:07:49.799Z,1001.75
2019-01-08T04:08:49.789Z,1001.68
2019-01-08T04:09:49.782Z,1001.68
2019-01-08T04:10:49.765Z,1001.68
2019-01-08T04:11:49.757Z,1001.61
2019-01-08T04:12:49.747Z,1001.59
2019-01-08T04:13:49.734Z,1001.60
2019-01-08T04:14:49.727Z,1001.52
2019-01-08T04:15:49.710Z,1001.47
2019-01-08T04:16:49.702Z,1001.46
2019-01-08T04:17:49.690Z,1001.50
2019-01-08T04:18:49.675Z,1001.47
2019-01-08T04:19:49.667Z,1001.42
2019-01-08T04:20:49.654Z,1001.44
2019-01-08T04:21:49.642Z,1001.41
2019-01-08T04:22:49.629Z,1001.46
2019-01-08T04:23:49.621Z,1001.38
2019-01-08T04:24:49.613Z,1001.51
2019-01-08T04:25:49.599Z,1001.51
2019-01-08T04:26:49.591Z,1001.49
2019-01-08T04:27:49.577Z,1001.48
2019-01-08T04:28:49.566Z,1001.46
2019-01-08T04:29:50.633Z,1001.42
2019-01-08T04:30:49.541Z,1001.34
2019-01-08T04:31:49.536Z,1001.37
2019-01-08T04:32:49.517Z,1001.40
2019-01-08T04:33:49.519Z,1001.39
2019-01-08T04:34:49.502Z,1001.29
2019-01-08T04:35:49.485Z,1001.28
2019-01-08T04:36:49.475Z,1001.25
2019-01-08T04:37:49.461Z,1001.18
2019-01-08T04:38:49.452Z,1001.15
2019-01-08T04:39:49.441Z,1001.16
2019-01-08T04:40:49.430Z,1001.13
2019-01-08T04:41:49.416Z,1001.05
2019-01-08T04:42:49.406Z,1001.00
2019-01-08T04:43:49.396Z,1001.00
2019-01-08T04:44:49.381Z,1000.95
2019-01-08T04:45:49.371Z,1001.01
2019-01-08T04:46:49.360Z,1000.89
2019-01-08T04:47:49.350Z,1000.89
2019-01-08T04:48:49.335Z,1000.91
2019-01-08T04:49:49.325Z,1000.74
2019-01-08T04:50:49.319Z,1000.85
2019-01-08T04:51:49.301Z,1000.75
2019-01-08T04:52:49.292Z,1000.76
2019-01-08T04:53:49.281Z,1000.61
2019-01-08T04:54:49.268Z,1000.61
2019-01-08T04:55:49.262Z,1000.62
2019-01-08T04:56:49.254Z,1000.61
2019-01-08T04:57:49.238Z,1000.54
2019-01-08T04:58:49.223Z,1000.50
2019-01-08T04:59:49.217Z,1000.40
2019-01-08T05:00:49.202Z,1000.36
2019-01-08T05:01:49.209Z,1000.39
2019-01-08T05:02:49.183Z,1000.38
2019-01-08T05:03:49.167Z,1000.36
2019-01-08T05:04:49.164Z,1000.46
2019-01-08T05:05:49.147Z,1000.32
2019-01-08T05:06:49.136Z,1000.34
2019-01-08T05:07:49.122Z,1000.26
2019-01-08T05:08:49.114Z,1000.23
2019-01-08T05:09:49.102Z,1000.20
2019-01-08T05:10:49.088Z,1000.14
2019-01-08T05:11:49.078Z,1000.18
2019-01-08T05:12:49.069Z,1000.20
2019-01-08T05:13:49.057Z,1000.12
2019-01-08T05:14:49.044Z,1000.06
2019-01-08T05:15:49.038Z,1000.05
2019-01-08T05:16:49.024Z,1000.05
2019-01-08T05:17:49.013Z,1000.00
2019-01-08T05:18:48.998Z,999.99
2019-01-08T05:19:48.992Z,1000.00
2019-01-08T05:20:48.979Z,1000.01
2019-01-08T05:21:48.964Z,999.94
2019-01-08T05:22:48.953Z,999.93
2019-01-08T05:23:48.941Z,999.95
2019-01-08T05:24:48.930Z,999.95
2019-01-08T05:25:48.919Z,999.97
2019-01-08T05:26:48.916Z,999.92
2019-01-08T05:27:48.896Z,999.87
2019-01-08T05:28:48.892Z,999.86
2019-01-08T05:29:48.873Z,999.84
2019-01-08T05:30:48.862Z,999.94
2019-01-08T05:31:48.850Z,999.83
2019-01-08T05:32:48.845Z,999.83
2019-01-08T05:33:48.828Z,999.78
2019-01-08T05:34:48.818Z,999.83
2019-01-08T05:35:48.806Z,999.73
2019-01-08T05:36:48.802Z,999.76
2019-01-08T05:37:48.783Z,999.77
2019-01-08T05:38:48.772Z,999.67
2019-01-08T05:39:48.760Z,999.70
2019-01-08T05:40:48.752Z,999.65
2019-01-08T05:41:48.739Z,999.58
2019-01-08T05:42:48.729Z,999.66
2019-01-08T05:43:48.721Z,999.60
2019-01-08T05:44:48.711Z,999.59
2019-01-08T05:45:48.702Z,999.52
2019-01-08T05:46:48.682Z,999.50
2019-01-08T05:47:48.670Z,999.47
2019-01-08T05:48:48.662Z,999.50
2019-01-08T05:49:48.654Z,999.41
2019-01-08T05:50:48.636Z,999.39
2019-01-08T05:51:48.628Z,999.43
2019-01-08T05:52:48.618Z,999.40
2019-01-08T05:53:48.621Z,999.43
2019-01-08T05:54:48.622Z,999.42
2019-01-08T05:55:48.631Z,999.40
2019-01-08T05:56:48.573Z,999.43
2019-01-08T05:57:48.572Z,999.30
2019-01-08T05:58:48.574Z,999.38
2019-01-08T05:59:48.579Z,999.39
2019-01-08T06:00:48.581Z,999.36
2019-01-08T06:01:48.512Z,999.34
2019-01-08T06:02:48.499Z,999.29
2019-01-08T06:03:48.488Z,999.28
2019-01-08T06:04:48.483Z,999.33
2019-01-08T06:05:48.472Z,999.23
2019-01-08T06:06:48.458Z,999.12
2019-01-08T06:07:48.445Z,999.18
2019-01-08T06:08:48.435Z,999.18
2019-01-08T06:09:48.423Z,999.13
2019-01-08T06:10:48.411Z,999.04
2019-01-08T06:11:48.405Z,999.03
2019-01-08T06:12:48.391Z,999.13
2019-01-08T06:13:48.380Z,999.10
2019-01-08T06:14:48.379Z,999.10
2019-01-08T06:15:48.362Z,999.05
2019-01-08T06:16:48.348Z,999.03
2019-01-08T06:17:48.333Z,999.05
2019-01-08T06:18:48.325Z,999.01
2019-01-08T06:19:48.317Z,998.93
2019-01-08T06:20:48.302Z,998.95
2019-01-08T06:21:48.284Z,998.89
2019-01-08T06:22:48.274Z,998.92
2019-01-08T06:23:48.262Z,998.94
2019-01-08T06:24:48.257Z,998.89
2019-01-08T06:25:48.241Z,998.86
2019-01-08T06:26:48.236Z,998.83
2019-01-08T06:27:48.230Z,998.74
2019-01-08T06:28:48.210Z,998.79
2019-01-08T06:29:48.199Z,998.72
2019-01-08T06:30:48.184Z,998.72
2019-01-08T06:31:48.184Z,998.71
2019-01-08T06:32:48.166Z,998.69
2019-01-08T06:33:48.157Z,998.66
2019-01-08T06:34:48.146Z,998.67
2019-01-08T06:35:48.129Z,998.58
2019-01-08T06:36:48.117Z,998.51
2019-01-08T06:37:48.105Z,998.53
2019-01-08T06:38:48.102Z,998.52
2019-01-08T06:39:48.083Z,998.53
2019-01-08T06:40:48.071Z,998.49
2019-01-08T06:41:48.060Z,998.47
2019-01-08T06:42:48.058Z,998.47
2019-01-08T06:43:48.037Z,998.41
2019-01-08T06:44:48.035Z,998.43
2019-01-08T06:45:48.021Z,998.36
2019-01-08T06:46:48.002Z,998.36
2019-01-08T06:47:47.992Z,998.27
2019-01-08T06:48:48.454Z,998.27
2019-01-08T06:49:47.969Z,998.27
2019-01-08T06:50:55.831Z,998.32
2019-01-08T06:52:12.430Z,998.17
2019-01-08T06:53:12.414Z,998.16
2019-01-08T06:54:12.405Z,998.10
2019-01-08T06:55:12.396Z,998.15
2019-01-08T06:56:12.381Z,998.18
2019-01-08T06:57:12.371Z,998.07
2019-01-08T06:58:12.358Z,998.09
2019-01-08T06:59:12.350Z,998.04
2019-01-08T07:00:12.335Z,997.93
2019-01-08T07:01:12.326Z,998.05
2019-01-08T07:02:12.313Z,998.01
2019-01-08T07:03:12.305Z,997.98
2019-01-08T07:04:12.293Z,997.94
2019-01-08T07:05:12.290Z,997.84
2019-01-08T07:06:12.270Z,997.97
2019-01-08T07:07:12.266Z,997.93
2019-01-08T07:08:12.248Z,997.88
2019-01-08T07:09:12.234Z,997.84
2019-01-08T07:10:12.235Z,997.87
2019-01-08T07:11:12.212Z,997.84
2019-01-08T07:12:12.200Z,997.90
2019-01-08T07:13:12.190Z,997.86
2019-01-08T07:14:12.178Z,997.79
2019-01-08T07:15:12.169Z,997.78
2019-01-08T07:16:12.156Z,997.77
2019-01-08T07:17:12.143Z,997.76
2019-01-08T07:18:12.136Z,997.72
2019-01-08T07:19:12.121Z,997.68
2019-01-08T07:20:12.109Z,997.67
2019-01-08T07:21:12.101Z,997.62
2019-01-08T07:22:12.092Z,997.59
2019-01-08T07:23:12.081Z,997.74
2019-01-08T07:24:12.065Z,997.58
2019-01-08T07:25:12.058Z,997.58
2019-01-08T07:26:12.041Z,997.48
2019-01-08T07:27:16.278Z,997.51
2019-01-08T07:28:12.020Z,997.51
2019-01-08T07:29:12.010Z,997.48
2019-01-08T07:30:11.997Z,997.51
2019-01-08T07:31:11.996Z,997.42
2019-01-08T07:32:11.981Z,997.39
2019-01-08T07:33:11.963Z,997.41
2019-01-08T07:34:11.952Z,997.34
2019-01-08T07:35:11.946Z,997.35
2019-01-08T07:36:11.934Z,997.30
2019-01-08T07:37:11.918Z,997.27
2019-01-08T07:38:11.908Z,997.18
2019-01-08T07:39:11.894Z,997.17
2019-01-08T07:40:11.885Z,997.13
2019-01-08T07:41:11.873Z,997.11
2019-01-08T07:42:11.861Z,997.13
2019-01-08T07:43:11.849Z,997.03
2019-01-08T07:44:11.839Z,997.01
2019-01-08T07:45:11.831Z,997.03
2019-01-08T07:46:11.817Z,996.97
2019-01-08T07:47:11.806Z,996.99
2019-01-08T07:48:11.800Z,996.93
2019-01-08T07:49:11.782Z,996.90
2019-01-08T07:50:11.774Z,996.90
2019-01-08T07:51:11.761Z,996.87
2019-01-08T07:52:11.753Z,996.72
2019-01-08T07:53:11.737Z,996.72
2019-01-08T07:54:11.731Z,996.68
2019-01-08T07:55:11.720Z,996.71
2019-01-08T07:56:11.708Z,996.72
2019-01-08T07:57:11.696Z,996.71
2019-01-08T07:58:11.682Z,996.70
2019-01-08T07:59:11.668Z,996.66
2019-01-08T08:00:11.657Z,996.73
2019-01-08T08:01:11.650Z,996.65
2019-01-08T08:02:11.636Z,996.68
2019-01-08T08:03:11.628Z,996.64
2019-01-08T08:04:11.613Z,996.58
2019-01-08T08:05:11.603Z,996.58
2019-01-08T08:06:11.590Z,996.58
2019-01-08T08:07:11.582Z,996.54
2019-01-08T08:08:11.571Z,996.54
2019-01-08T08:09:11.569Z,996.58
2019-01-08T08:10:11.546Z,996.53
2019-01-08T08:11:11.541Z,996.42
2019-01-08T08:12:11.525Z,996.40
2019-01-08T08:13:11.513Z,996.45
2019-01-08T08:14:11.505Z,996.46
2019-01-08T08:15:11.498Z,996.56
2019-01-08T08:16:11.477Z,996.38
2019-01-08T08:17:11.467Z,996.35
2019-01-08T08:18:11.454Z,996.29
2019-01-08T08:19:11.443Z,996.31
2019-01-08T08:20:11.435Z,996.33
2019-01-08T08:21:11.420Z,996.28
2019-01-08T08:22:11.409Z,996.28
2019-01-08T08:23:11.400Z,996.40
2019-01-08T08:24:11.388Z,996.27
2019-01-08T08:25:11.379Z,996.27
2019-01-08T08:26:11.367Z,996.23
2019-01-08T08:27:11.352Z,996.15
2019-01-08T08:28:11.345Z,996.19
2019-01-08T08:29:11.333Z,996.15
2019-01-08T08:30:11.319Z,996.20
2019-01-08T08:31:11.312Z,996.13
2019-01-08T08:32:11.305Z,996.09
2019-01-08T08:33:11.489Z,996.11
2019-01-08T08:34:11.274Z,996.11
2019-01-08T08:35:11.267Z,996.03
2019-01-08T08:36:11.252Z,996.11
2019-01-08T08:38:11.240Z,995.99
2019-01-08T08:39:11.218Z,995.94
2019-01-08T08:40:11.214Z,995.87
2019-01-08T08:41:11.205Z,995.93
2019-01-08T08:42:11.189Z,995.85
2019-01-08T08:43:11.178Z,995.84
2019-01-08T08:44:11.160Z,995.81
2019-01-08T08:45:11.156Z,995.76
2019-01-08T08:46:11.139Z,995.66
2019-01-08T08:47:11.128Z,995.72
2019-01-08T08:48:11.121Z,995.68
2019-01-08T08:49:11.111Z,995.63
2019-01-08T08:50:11.101Z,995.62
2019-01-08T08:51:11.082Z,995.62
2019-01-08T08:52:11.074Z,995.67
2019-01-08T08:53:11.063Z,995.51
2019-01-08T08:54:11.048Z,995.48
2019-01-08T08:55:11.042Z,995.54
2019-01-08T08:56:11.028Z,995.50
2019-01-08T08:57:11.216Z,995.50
2019-01-08T08:58:11.009Z,995.42
2019-01-08T08:59:10.992Z,995.45
2019-01-08T09:00:10.981Z,995.44
2019-01-08T09:01:11.001Z,995.46
2019-01-08T09:02:10.961Z,995.39
2019-01-08T09:03:10.971Z,995.37
2019-01-08T09:04:10.941Z,995.35
2019-01-08T09:05:10.930Z,995.34
2019-01-08T09:06:10.918Z,995.28
2019-01-08T09:07:10.916Z,995.21
2019-01-08T09:08:10.889Z,995.22
2019-01-08T09:09:10.892Z,995.12
2019-01-08T09:10:10.868Z,995.11
2019-01-08T09:11:10.883Z,995.10
2019-01-08T09:12:10.851Z,995.13
2019-01-08T09:13:10.883Z,995.11
2019-01-08T09:14:10.835Z,995.07
2019-01-08T09:15:10.822Z,995.11
2019-01-08T09:16:10.805Z,995.08
2019-01-08T09:17:10.795Z,995.06
2019-01-08T09:18:10.785Z,995.06
2019-01-08T09:19:10.802Z,995.05
2019-01-08T09:20:10.758Z,995.08
2019-01-08T09:21:10.753Z,994.99
2019-01-08T09:22:10.734Z,995.05
2019-01-08T09:23:10.731Z,995.01
2019-01-08T09:24:10.711Z,995.04
2019-01-08T09:25:10.749Z,994.92
2019-01-08T09:26:10.697Z,994.96
2019-01-08T09:27:10.688Z,994.92
2019-01-08T09:28:10.665Z,994.94
2019-01-08T09:29:10.680Z,994.85
2019-01-08T09:30:10.645Z,994.91
2019-01-08T09:31:15.327Z,994.81
2019-01-08T09:32:10.651Z,994.78
2019-01-08T09:33:10.642Z,994.68
2019-01-08T09:34:10.600Z,994.64
2019-01-08T09:35:10.651Z,994.54
2019-01-08T09:36:10.576Z,994.54
2019-01-08T09:37:10.593Z,994.52
2019-01-08T09:38:10.563Z,994.57
2019-01-08T09:39:10.549Z,994.52
2019-01-08T09:40:10.533Z,994.55
2019-01-08T09:41:10.553Z,994.45
2019-01-08T09:42:10.507Z,994.59
2019-01-08T09:43:10.503Z,994.45
2019-01-08T09:44:10.486Z,994.48
2019-01-08T09:45:10.496Z,994.48
2019-01-08T09:46:10.471Z,994.38
2019-01-08T09:47:10.458Z,994.40
2019-01-08T09:48:10.442Z,994.46
2019-01-08T09:49:10.429Z,994.38
2019-01-08T09:50:10.423Z,994.32
2019-01-08T09:51:10.408Z,994.32
2019-01-08T09:52:10.396Z,994.29
2019-01-08T09:53:10.390Z,994.40
2019-01-08T09:54:10.374Z,994.34
2019-01-08T09:55:10.362Z,994.26
2019-01-08T09:56:10.351Z,994.30
2019-01-08T09:57:10.347Z,994.31
2019-01-08T09:58:10.328Z,994.27
2019-01-08T09:59:10.318Z,994.18
2019-01-08T10:00:10.313Z,994.17
2019-01-08T10:01:10.302Z,994.20
2019-01-08T10:02:10.284Z,994.23
2019-01-08T10:03:10.272Z,994.06
2019-01-08T10:04:10.261Z,994.06
2019-01-08T10:05:10.258Z,994.07
2019-01-08T10:06:10.245Z,993.93
2019-01-08T10:07:10.228Z,993.98
2019-01-08T10:08:10.223Z,994.00
2019-01-08T10:09:10.205Z,993.87
2019-01-08T10:10:10.200Z,993.90
2019-01-08T10:11:10.182Z,993.95
2019-01-08T10:12:10.178Z,993.85
2019-01-08T10:13:10.167Z,993.79
2019-01-08T10:14:10.148Z,993.77
2019-01-08T10:15:10.139Z,993.73
2019-01-08T10:16:10.129Z,993.82
2019-01-08T10:17:10.115Z,993.73
2019-01-08T10:18:10.103Z,993.72
2019-01-08T10:19:10.101Z,993.78
2019-01-08T10:20:10.084Z,993.69
2019-01-08T10:21:10.071Z,993.73
2019-01-08T10:22:10.060Z,993.68
2019-01-08T10:23:10.504Z,993.65
2019-01-08T10:24:10.051Z,993.62
2019-01-08T10:25:10.029Z,993.59
2019-01-08T10:26:10.012Z,993.55
2019-01-08T10:27:10.002Z,993.57
2019-01-08T10:28:09.991Z,993.59
2019-01-08T10:29:09.979Z,993.39
2019-01-08T10:30:09.981Z,993.52
2019-01-08T10:31:09.959Z,993.55
2019-01-08T10:32:09.949Z,993.46
2019-01-08T10:33:09.935Z,993.39
2019-01-08T10:34:09.925Z,993.52
2019-01-08T10:35:09.923Z,993.47
2019-01-08T10:36:09.910Z,993.44
2019-01-08T10:37:09.892Z,993.37
2019-01-08T10:38:09.889Z,993.24
2019-01-08T10:39:09.868Z,993.28
2019-01-08T10:40:09.863Z,993.39
2019-01-08T10:41:09.846Z,993.30
2019-01-08T10:42:09.848Z,993.24
2019-01-08T10:43:09.831Z,993.22
2019-01-08T10:44:09.822Z,993.18
2019-01-08T10:45:09.807Z,993.25
2019-01-08T10:46:09.792Z,993.21
2019-01-08T10:47:09.783Z,993.08
2019-01-08T10:48:09.777Z,993.08
2019-01-08T10:49:09.789Z,993.03
2019-01-08T10:50:09.764Z,993.16
2019-01-08T10:51:09.737Z,993.21
2019-01-08T10:52:09.731Z,993.06
2019-01-08T10:53:09.719Z,993.05
2019-01-08T10:54:09.705Z,993.00
2019-01-08T10:55:09.690Z,993.09
2019-01-08T10:56:09.684Z,992.98
2019-01-08T10:57:09.673Z,992.98
2019-01-08T10:58:09.665Z,992.95
2019-01-08T10:59:09.648Z,992.98
2019-01-08T11:00:09.649Z,992.96
2019-01-08T11:01:09.654Z,992.99
2019-01-08T11:02:09.656Z,992.91
2019-01-08T11:03:09.604Z,992.89
2019-01-08T11:04:09.600Z,992.93
2019-01-08T11:05:09.604Z,992.80
2019-01-08T11:06:09.606Z,992.87
2019-01-08T11:07:09.615Z,992.83
2019-01-08T11:08:09.550Z,992.72
2019-01-08T11:09:09.539Z,992.82
2019-01-08T11:10:09.527Z,992.77
2019-01-08T11:11:09.524Z,992.79
2019-01-08T11:12:09.509Z,992.78
2019-01-08T11:13:09.493Z,992.80
2019-01-08T11:14:09.489Z,992.67
2019-01-08T11:15:09.474Z,992.79
2019-01-08T11:16:09.463Z,992.71
2019-01-08T11:17:09.451Z,992.64
2019-01-08T11:18:09.437Z,992.67
2019-01-08T11:19:09.428Z,992.70
2019-01-08T11:20:09.421Z,992.64
2019-01-08T11:21:09.406Z,992.62
2019-01-08T11:22:09.394Z,992.62
2019-01-08T11:23:09.383Z,992.52
2019-01-08T11:24:09.375Z,992.53
2019-01-08T11:25:09.372Z,992.56
2019-01-08T11:26:09.347Z,992.52
2019-01-08T11:27:09.352Z,992.43
2019-01-08T11:28:09.334Z,992.46
2019-01-08T11:29:09.314Z,992.46
2019-01-08T11:30:09.302Z,992.54
2019-01-08T11:31:09.292Z,992.42
2019-01-08T11:32:09.286Z,992.40
2019-01-08T11:33:09.272Z,992.40
2019-01-08T11:34:09.257Z,992.45
2019-01-08T11:35:09.261Z,992.53
2019-01-08T11:36:09.238Z,992.35
2019-01-08T11:37:09.224Z,992.38
2019-01-08T11:38:09.219Z,992.38
2019-01-08T11:39:10.652Z,992.41
2019-01-08T11:40:09.189Z,992.33
2019-01-08T11:41:09.179Z,992.35
2019-01-08T11:42:09.168Z,992.32
2019-01-08T11:43:09.156Z,992.31
2019-01-08T11:44:09.146Z,992.30
2019-01-08T11:45:09.132Z,992.37
2019-01-08T11:46:09.121Z,992.26
2019-01-08T11:47:09.111Z,992.28
2019-01-08T11:48:09.099Z,992.30
2019-01-08T11:49:09.088Z,992.22
2019-01-08T11:50:09.078Z,992.28
2019-01-08T11:51:09.066Z,992.29
2019-01-08T11:52:09.054Z,992.19
2019-01-08T11:53:09.044Z,992.30
2019-01-08T11:54:09.042Z,992.24
2019-01-08T11:55:09.047Z,992.31
2019-01-08T11:56:09.010Z,992.20
2019-01-08T11:57:09.000Z,992.16
2019-01-08T11:58:08.991Z,992.16
2019-01-08T11:59:08.983Z,992.16
2019-01-08T12:00:08.971Z,992.22
2019-01-08T12:01:08.965Z,992.28
2019-01-08T12:02:08.946Z,992.18
2019-01-08T12:03:08.932Z,992.14
2019-01-08T12:04:08.922Z,992.19
2019-01-08T12:05:08.916Z,992.13
2019-01-08T12:06:09.020Z,992.16
2019-01-08T12:07:08.889Z,992.17
2019-01-08T12:08:08.890Z,992.12
2019-01-08T12:09:08.871Z,992.14
2019-01-08T12:10:08.855Z,992.05
2019-01-08T12:11:08.843Z,992.01
2019-01-08T12:12:08.832Z,992.07
2019-01-08T12:13:08.820Z,991.91
2019-01-08T12:14:08.809Z,992.06
2019-01-08T12:15:08.800Z,992.06
2019-01-08T12:16:08.786Z,992.04
2019-01-08T12:17:08.779Z,992.01
2019-01-08T12:18:08.765Z,992.02
2019-01-08T12:19:08.753Z,992.02
2019-01-08T12:20:08.747Z,992.01
2019-01-08T12:21:08.731Z,991.96